createdAt,value
2018-05-15T00:00:22.250Z,13.2
2018-05-15T00:01:22.971Z,13.2
2018-05-15T00:02:23.689Z,13.1
2018-05-15T00:03:24.401Z,13.2
2018-05-15T00:04:25.126Z,13.1
2018-05-15T00:05:26.185Z,13.1
2018-05-15T00:06:26.904Z,13.2
2018-05-15T00:07:27.627Z,13.3
2018-05-15T00:08:28.341Z,13.3
2018-05-15T00:09:29.105Z,13.3
2018-05-15T00:10:29.827Z,13.3
2018-05-15T00:11:30.570Z,13.2
2018-05-15T00:12:31.344Z,13.3
2018-05-15T00:13:32.069Z,13.2
2018-05-15T00:14:32.797Z,13.2
2018-05-15T00:15:33.525Z,13.2
2018-05-15T00:16:34.306Z,13.2
2018-05-15T00:17:34.952Z,13.2
2018-05-15T00:18:35.923Z,13.2
2018-05-15T00:19:36.653Z,13.2
2018-05-15T00:20:37.369Z,13.2
2018-05-15T00:21:38.104Z,13.2
2018-05-15T00:22:38.818Z,13.2
2018-05-15T00:23:39.528Z,13.2
2018-05-15T00:24:40.246Z,13.1
2018-05-15T00:25:40.969Z,13.1
2018-05-15T00:26:41.689Z,13.1
2018-05-15T00:27:42.417Z,13.0
2018-05-15T00:28:43.194Z,13.0
2018-05-15T00:29:43.907Z,13.0
2018-05-15T00:30:44.878Z,13.0
2018-05-15T00:31:45.592Z,12.9
2018-05-15T00:32:46.324Z,12.9
2018-05-15T00:33:47.051Z,12.9
2018-05-15T00:34:47.783Z,12.9
2018-05-15T00:35:48.493Z,12.9
2018-05-15T00:36:49.212Z,13.0
2018-05-15T00:37:49.931Z,12.9
2018-05-15T00:38:50.656Z,12.9
2018-05-15T00:39:51.378Z,13.0
2018-05-15T00:40:52.344Z,12.9
2018-05-15T00:41:53.066Z,12.8
2018-05-15T00:42:53.784Z,12.8
2018-05-15T00:43:54.505Z,12.9
2018-05-15T00:44:55.233Z,12.8
2018-05-15T00:45:56.218Z,12.8
2018-05-15T00:46:56.934Z,12.7
2018-05-15T00:47:57.639Z,12.6
2018-05-15T00:48:58.606Z,12.6
2018-05-15T00:49:59.313Z,12.6
2018-05-15T00:51:00.031Z,12.7
2018-05-15T00:52:00.744Z,12.6
2018-05-15T00:53:01.461Z,12.6
2018-05-15T00:54:02.179Z,12.5
2018-05-15T00:55:02.904Z,12.6
2018-05-15T00:56:03.630Z,12.5
2018-05-15T00:57:04.341Z,12.6
2018-05-15T00:58:05.077Z,12.5
2018-05-15T00:59:05.796Z,12.5
2018-05-15T01:00:06.515Z,12.6
2018-05-15T01:01:07.226Z,12.5
2018-05-15T01:02:07.989Z,12.5
2018-05-15T01:03:08.704Z,12.4
2018-05-15T01:04:09.416Z,12.4
2018-05-15T01:05:10.138Z,12.4
2018-05-15T01:06:10.851Z,12.4
2018-05-15T01:07:11.721Z,12.4
2018-05-15T01:08:12.450Z,12.4
2018-05-15T01:09:13.181Z,12.4
2018-05-15T01:10:13.903Z,12.3
2018-05-15T01:11:14.631Z,12.3
2018-05-15T01:12:15.359Z,12.3
2018-05-15T01:13:16.088Z,12.3
2018-05-15T01:14:17.160Z,12.2
2018-05-15T01:15:17.880Z,12.2
2018-05-15T01:16:18.861Z,12.2
2018-05-15T01:17:19.566Z,12.2
2018-05-15T01:18:20.285Z,12.1
2018-05-15T01:19:21.265Z,12.0
2018-05-15T01:20:21.966Z,12.0
2018-05-15T01:21:22.689Z,12.1
2018-05-15T01:22:23.410Z,12.1
2018-05-15T01:23:24.128Z,12.0
2018-05-15T01:24:24.896Z,11.9
2018-05-15T01:25:25.619Z,11.9
2018-05-15T01:26:26.535Z,11.8
2018-05-15T01:27:27.248Z,11.8
2018-05-15T01:28:27.972Z,11.8
2018-05-15T01:29:28.936Z,11.8
2018-05-15T01:30:29.721Z,11.8
2018-05-15T01:31:30.440Z,11.7
2018-05-15T01:32:31.173Z,11.7
2018-05-15T01:33:31.891Z,11.7
2018-05-15T01:34:32.609Z,11.7
2018-05-15T01:35:33.475Z,11.7
2018-05-15T01:36:34.186Z,11.6
2018-05-15T01:37:34.910Z,11.7
2018-05-15T01:38:35.628Z,11.6
2018-05-15T01:39:36.350Z,11.6
2018-05-15T01:40:37.082Z,11.6
2018-05-15T01:41:38.146Z,11.6
2018-05-15T01:42:38.869Z,11.6
2018-05-15T01:43:39.585Z,11.6
2018-05-15T01:44:40.310Z,11.6
2018-05-15T01:45:41.035Z,11.6
2018-05-15T01:46:42.391Z,11.4
2018-05-15T01:47:43.118Z,11.4
2018-05-15T01:48:43.830Z,11.4
2018-05-15T01:49:44.563Z,11.5
2018-05-15T01:50:45.284Z,11.5
2018-05-15T01:51:46.008Z,11.4
2018-05-15T01:52:46.713Z,11.4
2018-05-15T01:53:47.520Z,11.4
2018-05-15T01:54:48.229Z,11.4
2018-05-15T01:55:48.946Z,11.4
2018-05-15T01:56:49.669Z,11.3
2018-05-15T01:57:50.635Z,11.3
2018-05-15T01:58:51.350Z,11.3
2018-05-15T01:59:52.068Z,11.3
2018-05-15T02:00:53.052Z,11.3
2018-05-15T02:01:53.763Z,11.2
2018-05-15T02:02:54.471Z,11.2
2018-05-15T02:03:55.194Z,11.2
2018-05-15T02:04:55.913Z,11.2
2018-05-15T02:05:56.649Z,11.2
2018-05-15T02:06:57.819Z,11.2
2018-05-15T02:07:58.800Z,11.2
2018-05-15T02:08:59.528Z,11.1
2018-05-15T02:10:00.232Z,11.1
2018-05-15T02:11:00.961Z,11.2
2018-05-15T02:12:01.775Z,11.1
2018-05-15T02:13:02.491Z,11.1
2018-05-15T02:14:03.221Z,11.1
2018-05-15T02:15:03.955Z,11.0
2018-05-15T02:16:04.670Z,11.1
2018-05-15T02:17:06.121Z,10.9
2018-05-15T02:18:06.822Z,11.0
2018-05-15T02:19:07.557Z,10.9
2018-05-15T02:20:08.267Z,11.0
2018-05-15T02:21:08.992Z,10.9
2018-05-15T02:22:09.811Z,10.9
2018-05-15T02:23:10.533Z,10.9
2018-05-15T02:24:11.239Z,11.0
2018-05-15T02:25:12.014Z,11.0
2018-05-15T02:26:12.724Z,11.0
2018-05-15T02:27:13.448Z,11.1
2018-05-15T02:28:14.177Z,11.0
2018-05-15T02:29:14.896Z,11.0
2018-05-15T02:30:15.606Z,11.0
2018-05-15T02:31:16.331Z,10.9
2018-05-15T02:32:17.210Z,11.0
2018-05-15T02:33:17.920Z,10.9
2018-05-15T02:34:18.646Z,10.9
2018-05-15T02:35:19.375Z,11.0
2018-05-15T02:36:20.093Z,10.9
2018-05-15T02:37:20.873Z,10.9
2018-05-15T02:38:21.607Z,10.7
2018-05-15T02:39:22.312Z,10.8
2018-05-15T02:40:23.056Z,10.7
2018-05-15T02:41:23.790Z,10.7
2018-05-15T02:42:24.515Z,10.9
2018-05-15T02:43:25.228Z,10.7
2018-05-15T02:44:26.193Z,10.7
2018-05-15T02:45:26.909Z,10.7
2018-05-15T02:46:27.630Z,10.8
2018-05-15T02:47:28.344Z,10.8
2018-05-15T02:48:29.064Z,10.7
2018-05-15T02:49:29.784Z,10.7
2018-05-15T02:50:30.521Z,10.7
2018-05-15T02:51:31.225Z,10.7
2018-05-15T02:52:31.950Z,10.7
2018-05-15T02:53:32.937Z,10.6
2018-05-15T02:54:33.695Z,10.6
2018-05-15T02:55:34.413Z,10.7
2018-05-15T02:56:35.382Z,10.5
2018-05-15T02:57:36.085Z,10.6
2018-05-15T02:58:36.799Z,10.6
2018-05-15T02:59:37.532Z,10.5
2018-05-15T03:00:38.256Z,10.5
2018-05-15T03:01:39.222Z,10.4
2018-05-15T03:02:39.943Z,10.4
2018-05-15T03:03:40.670Z,10.4
2018-05-15T03:04:41.434Z,10.5
2018-05-15T03:05:42.152Z,10.4
2018-05-15T03:06:42.889Z,10.4
2018-05-15T03:07:43.605Z,10.4
2018-05-15T03:08:44.322Z,10.4
2018-05-15T03:09:45.040Z,10.4
2018-05-15T03:10:45.764Z,10.4
2018-05-15T03:11:46.556Z,10.4
2018-05-15T03:12:47.240Z,10.4
2018-05-15T03:13:47.967Z,10.4
2018-05-15T03:14:48.687Z,10.4
2018-05-15T03:15:49.418Z,10.4
2018-05-15T03:16:50.139Z,10.4
2018-05-15T03:17:50.863Z,10.4
2018-05-15T03:18:51.932Z,10.3
2018-05-15T03:19:52.660Z,10.3
2018-05-15T03:20:53.388Z,10.3
2018-05-15T03:21:54.109Z,10.3
2018-05-15T03:22:54.824Z,10.3
2018-05-15T03:23:55.545Z,10.3
2018-05-15T03:24:56.253Z,10.3
2018-05-15T03:25:56.977Z,10.3
2018-05-15T03:26:57.702Z,10.3
2018-05-15T03:27:58.434Z,10.2
2018-05-15T03:28:59.408Z,10.3
2018-05-15T03:30:00.189Z,10.3
2018-05-15T03:31:00.915Z,10.2
2018-05-15T03:32:01.665Z,10.2
2018-05-15T03:33:02.395Z,10.2
2018-05-15T03:34:03.134Z,10.2
2018-05-15T03:35:03.893Z,10.3
2018-05-15T03:36:04.613Z,10.1
2018-05-15T03:37:05.335Z,10.2
2018-05-15T03:38:06.081Z,10.1
2018-05-15T03:39:06.799Z,10.1
2018-05-15T03:40:07.536Z,10.2
2018-05-15T03:41:08.258Z,10.0
2018-05-15T03:42:08.990Z,10.1
2018-05-15T03:43:09.710Z,10.1
2018-05-15T03:44:10.422Z,10.0
2018-05-15T03:45:11.197Z,10.0
2018-05-15T03:46:11.916Z,10.1
2018-05-15T03:47:12.657Z,10.0
2018-05-15T03:48:13.369Z,10.0
2018-05-15T03:49:14.094Z,9.9
2018-05-15T03:50:14.859Z,10.0
2018-05-15T03:51:15.575Z,9.9
2018-05-15T03:52:16.308Z,10.0
2018-05-15T03:53:17.011Z,9.9
2018-05-15T03:54:17.734Z,9.9
2018-05-15T03:55:18.449Z,9.9
2018-05-15T03:56:19.458Z,9.9
2018-05-15T03:57:20.178Z,9.9
2018-05-15T03:58:20.897Z,9.9
2018-05-15T03:59:21.624Z,9.8
2018-05-15T04:00:22.357Z,9.9
2018-05-15T04:01:23.091Z,9.9
2018-05-15T04:02:23.920Z,9.9
2018-05-15T04:03:24.540Z,9.9
2018-05-15T04:04:25.282Z,9.9
2018-05-15T04:05:26.393Z,9.9
2018-05-15T04:06:27.372Z,9.9
2018-05-15T04:07:28.097Z,10.0
2018-05-15T04:08:28.810Z,9.9
2018-05-15T04:09:29.541Z,10.0
2018-05-15T04:10:30.314Z,9.9
2018-05-15T04:11:31.042Z,9.9
2018-05-15T04:12:31.772Z,9.9
2018-05-15T04:13:32.488Z,9.9
2018-05-15T04:14:33.208Z,10.0
2018-05-15T04:15:34.031Z,9.9
2018-05-15T04:16:34.757Z,9.9
2018-05-15T04:17:35.479Z,9.9
2018-05-15T04:18:36.194Z,9.9
2018-05-15T04:19:37.166Z,10.0
2018-05-15T04:20:37.890Z,10.0
2018-05-15T04:21:38.608Z,10.0
2018-05-15T04:22:39.329Z,10.0
2018-05-15T04:23:40.406Z,10.0
2018-05-15T04:24:41.136Z,10.0
2018-05-15T04:25:41.875Z,10.1
2018-05-15T04:26:42.608Z,10.1
2018-05-15T04:27:43.321Z,10.1
2018-05-15T04:28:44.305Z,10.1
2018-05-15T04:29:45.126Z,10.1
2018-05-15T04:30:45.847Z,10.3
2018-05-15T04:31:46.576Z,10.2
2018-05-15T04:32:47.304Z,10.3
2018-05-15T04:33:48.278Z,10.3
2018-05-15T04:34:49.629Z,10.3
2018-05-15T04:35:50.358Z,10.3
2018-05-15T04:36:51.094Z,10.4
2018-05-15T04:37:51.805Z,10.4
2018-05-15T04:38:52.779Z,10.3
2018-05-15T04:39:53.545Z,10.5
2018-05-15T04:40:54.269Z,10.4
2018-05-15T04:41:54.994Z,10.4
2018-05-15T04:42:55.718Z,10.4
2018-05-15T04:43:56.468Z,10.5
2018-05-15T04:44:57.181Z,10.5
2018-05-15T04:45:57.907Z,10.6
2018-05-15T04:46:58.783Z,10.7
2018-05-15T04:47:59.502Z,10.7
2018-05-15T04:49:00.221Z,10.6
2018-05-15T04:50:00.960Z,10.8
2018-05-15T04:51:01.683Z,10.8
2018-05-15T04:52:02.804Z,10.8
2018-05-15T04:53:03.527Z,10.9
2018-05-15T04:54:04.264Z,10.9
2018-05-15T04:55:04.994Z,11.0
2018-05-15T04:56:05.730Z,10.9
2018-05-15T04:57:06.451Z,10.9
2018-05-15T04:58:07.460Z,11.0
2018-05-15T04:59:08.182Z,11.1
2018-05-15T05:00:08.925Z,11.1
2018-05-15T05:01:09.633Z,11.2
2018-05-15T05:02:10.467Z,11.2
2018-05-15T05:03:11.194Z,11.4
2018-05-15T05:04:11.908Z,11.4
2018-05-15T05:05:12.885Z,11.4
2018-05-15T05:06:13.597Z,11.5
2018-05-15T05:07:14.318Z,11.7
2018-05-15T05:08:15.352Z,11.7
2018-05-15T05:09:16.087Z,11.8
2018-05-15T05:10:16.815Z,11.8
2018-05-15T05:11:17.790Z,11.8
2018-05-15T05:12:18.525Z,11.9
2018-05-15T05:13:19.243Z,12.0
2018-05-15T05:14:19.968Z,12.1
2018-05-15T05:15:20.712Z,12.2
2018-05-15T05:16:21.446Z,12.2
2018-05-15T05:17:22.171Z,12.4
2018-05-15T05:18:22.900Z,12.5
2018-05-15T05:19:23.639Z,12.6
2018-05-15T05:20:24.361Z,12.8
2018-05-15T05:21:25.086Z,13.1
2018-05-15T05:22:25.798Z,13.2
2018-05-15T05:23:26.775Z,13.5
2018-05-15T05:24:27.489Z,13.8
2018-05-15T05:25:28.208Z,14.1
2018-05-15T05:26:28.931Z,14.3
2018-05-15T05:27:29.650Z,14.5
2018-05-15T05:28:30.379Z,14.7
2018-05-15T05:29:31.120Z,14.9
2018-05-15T05:30:31.844Z,15.2
2018-05-15T05:31:32.917Z,15.3
2018-05-15T05:32:33.648Z,15.5
2018-05-15T05:33:34.374Z,15.8
2018-05-15T05:34:35.107Z,15.9
2018-05-15T05:35:35.828Z,15.9
2018-05-15T05:36:36.808Z,16.1
2018-05-15T05:37:37.539Z,16.2
2018-05-15T05:38:38.256Z,16.3
2018-05-15T05:39:38.986Z,16.4
2018-05-15T05:40:39.711Z,16.6
2018-05-15T05:41:40.805Z,16.7
2018-05-15T05:42:41.540Z,16.9
2018-05-15T05:43:42.269Z,17.0
2018-05-15T05:44:42.993Z,17.0
2018-05-15T05:45:43.719Z,17.1
2018-05-15T05:46:44.551Z,17.0
2018-05-15T05:47:45.274Z,17.2
2018-05-15T05:48:46.000Z,17.1
2018-05-15T05:49:47.250Z,17.1
2018-05-15T05:50:48.012Z,17.0
2018-05-15T05:51:48.731Z,16.9
2018-05-15T05:52:49.828Z,16.8
2018-05-15T05:53:50.553Z,16.8
2018-05-15T05:54:51.303Z,16.7
2018-05-15T05:55:52.027Z,16.7
2018-05-15T05:56:52.755Z,16.6
2018-05-15T05:57:53.483Z,16.5
2018-05-15T05:58:54.207Z,16.4
2018-05-15T05:59:55.032Z,16.4
2018-05-15T06:00:55.752Z,16.3
2018-05-15T06:01:56.475Z,16.4
2018-05-15T06:02:57.202Z,16.3
2018-05-15T06:03:57.924Z,16.3
2018-05-15T06:04:59.062Z,16.4
2018-05-15T06:05:59.789Z,16.4
2018-05-15T06:07:00.524Z,16.5
2018-05-15T06:08:01.252Z,16.4
2018-05-15T06:09:02.231Z,16.5
2018-05-15T06:10:02.967Z,16.5
2018-05-15T06:11:03.696Z,16.6
2018-05-15T06:12:04.568Z,16.6
2018-05-15T06:13:05.311Z,16.6
2018-05-15T06:14:06.037Z,16.7
2018-05-15T06:15:06.761Z,16.7
2018-05-15T06:16:07.489Z,16.8
2018-05-15T06:17:08.222Z,16.8
2018-05-15T06:18:08.932Z,16.8
2018-05-15T06:19:09.668Z,17.0
2018-05-15T06:20:10.397Z,16.9
2018-05-15T06:21:11.134Z,17.0
2018-05-15T06:22:12.262Z,17.1
2018-05-15T06:23:12.993Z,17.1
2018-05-15T06:24:13.721Z,17.2
2018-05-15T06:25:14.443Z,17.2
2018-05-15T06:26:15.421Z,17.2
2018-05-15T06:27:16.209Z,17.3
2018-05-15T06:28:16.933Z,17.5
2018-05-15T06:29:17.671Z,17.5
2018-05-15T06:30:18.394Z,17.6
2018-05-15T06:31:19.133Z,17.7
2018-05-15T06:32:19.905Z,17.7
2018-05-15T06:33:20.587Z,17.7
2018-05-15T06:34:21.317Z,17.8
2018-05-15T06:35:22.309Z,17.8
2018-05-15T06:36:23.044Z,17.8
2018-05-15T06:37:23.763Z,17.8
2018-05-15T06:38:24.575Z,17.9
2018-05-15T06:39:25.303Z,17.9
2018-05-15T06:40:26.050Z,18.0
2018-05-15T06:41:26.777Z,18.1
2018-05-15T06:42:27.504Z,18.2
2018-05-15T06:43:29.033Z,18.3
2018-05-15T06:44:29.764Z,18.4
2018-05-15T06:45:30.493Z,18.4
2018-05-15T06:46:31.220Z,18.4
2018-05-15T06:47:31.951Z,18.4
2018-05-15T06:48:33.089Z,18.4
2018-05-15T06:49:33.822Z,18.6
2018-05-15T06:50:34.548Z,18.7
2018-05-15T06:51:35.272Z,18.7
2018-05-15T06:52:36.006Z,18.8
2018-05-15T06:53:37.334Z,18.9
2018-05-15T06:54:38.064Z,18.9
2018-05-15T06:55:38.796Z,18.7
2018-05-15T06:56:39.774Z,18.8
2018-05-15T06:57:40.502Z,18.7
2018-05-15T06:58:41.230Z,18.7
2018-05-15T06:59:41.960Z,18.7
2018-05-15T07:00:42.696Z,18.8
2018-05-15T07:01:43.467Z,18.7
2018-05-15T07:02:44.180Z,18.8
2018-05-15T07:03:44.900Z,18.7
2018-05-15T07:04:45.651Z,18.8
2018-05-15T07:05:46.386Z,18.9
2018-05-15T07:06:47.117Z,19.1
2018-05-15T07:07:47.937Z,19.1
2018-05-15T07:08:48.564Z,19.1
2018-05-15T07:09:49.743Z,19.3
2018-05-15T07:10:50.474Z,19.5
2018-05-15T07:11:51.196Z,19.5
2018-05-15T07:12:51.927Z,19.5
2018-05-15T07:13:52.654Z,19.6
2018-05-15T07:14:53.394Z,19.6
2018-05-15T07:15:54.122Z,19.8
2018-05-15T07:16:54.840Z,19.8
2018-05-15T07:17:55.582Z,20.0
2018-05-15T07:18:56.374Z,20.1
2018-05-15T07:19:57.103Z,20.2
2018-05-15T07:20:57.832Z,20.5
2018-05-15T07:21:58.582Z,20.6
2018-05-15T07:22:59.317Z,20.8
2018-05-15T07:24:00.060Z,21.0
2018-05-15T07:25:00.778Z,21.2
2018-05-15T07:26:01.512Z,21.3
2018-05-15T07:27:02.235Z,21.7
2018-05-15T07:28:02.988Z,22.4
2018-05-15T07:29:03.723Z,23.0
2018-05-15T07:30:04.444Z,23.3
2018-05-15T07:31:05.191Z,23.2
2018-05-15T07:32:06.018Z,23.6
2018-05-15T07:33:06.792Z,23.5
2018-05-15T07:34:07.480Z,23.2
2018-05-15T07:35:08.196Z,22.9
2018-05-15T07:36:08.933Z,23.2
2018-05-15T07:37:10.308Z,23.6
2018-05-15T07:38:11.040Z,24.0
2018-05-15T07:39:11.760Z,24.3
2018-05-15T07:40:12.566Z,24.1
2018-05-15T07:41:13.480Z,24.4
2018-05-15T07:42:14.742Z,24.5
2018-05-15T07:43:15.463Z,24.7
2018-05-15T07:44:16.202Z,25.1
2018-05-15T07:45:16.926Z,25.4
2018-05-15T07:46:18.170Z,25.6
2018-05-15T07:47:18.884Z,24.9
2018-05-15T07:48:19.726Z,24.7
2018-05-15T07:49:20.356Z,23.8
2018-05-15T07:50:21.347Z,23.8
2018-05-15T07:51:22.092Z,24.0
2018-05-15T07:52:22.825Z,24.1
2018-05-15T07:53:23.816Z,24.0
2018-05-15T07:54:24.561Z,24.1
2018-05-15T07:55:25.337Z,24.3
2018-05-15T07:56:26.077Z,24.3
2018-05-15T07:57:26.802Z,24.4
2018-05-15T07:58:27.535Z,24.3
2018-05-15T07:59:28.525Z,24.4
2018-05-15T08:00:29.243Z,24.0
2018-05-15T08:01:29.969Z,23.8
2018-05-15T08:02:30.700Z,23.6
2018-05-15T08:03:31.436Z,23.4
2018-05-15T08:04:32.223Z,23.6
2018-05-15T08:05:32.906Z,23.5
2018-05-15T08:06:33.894Z,23.6
2018-05-15T08:07:34.612Z,23.4
2018-05-15T08:08:35.336Z,23.4
2018-05-15T08:09:36.067Z,23.3
2018-05-15T08:10:36.809Z,23.4
2018-05-15T08:11:37.790Z,23.3
2018-05-15T08:12:38.523Z,23.1
2018-05-15T08:13:39.255Z,23.3
2018-05-15T08:14:39.990Z,23.2
2018-05-15T08:15:41.031Z,23.2
2018-05-15T08:16:41.749Z,23.4
2018-05-15T08:17:42.474Z,23.5
2018-05-15T08:18:43.204Z,23.5
2018-05-15T08:19:43.943Z,23.6
2018-05-15T08:20:44.776Z,23.4
2018-05-15T08:21:45.511Z,23.3
2018-05-15T08:22:46.249Z,23.4
2018-05-15T08:23:46.975Z,23.6
2018-05-15T08:24:47.714Z,23.4
2018-05-15T08:25:48.593Z,23.4
2018-05-15T08:26:49.327Z,23.5
2018-05-15T08:27:50.064Z,23.6
2018-05-15T08:28:50.790Z,23.6
2018-05-15T08:29:51.767Z,23.6
2018-05-15T08:30:52.543Z,23.7
2018-05-15T08:31:53.265Z,23.6
2018-05-15T08:32:53.985Z,23.6
2018-05-15T08:33:54.727Z,23.7
2018-05-15T08:34:55.460Z,23.8
2018-05-15T08:35:56.188Z,23.6
2018-05-15T08:36:56.915Z,23.6
2018-05-15T08:37:57.647Z,23.7
2018-05-15T08:38:58.377Z,23.6
2018-05-15T08:39:59.115Z,23.3
2018-05-15T08:40:59.838Z,23.4
2018-05-15T08:42:00.568Z,23.4
2018-05-15T08:43:01.550Z,23.4
2018-05-15T08:44:02.276Z,23.4
2018-05-15T08:45:02.999Z,23.6
2018-05-15T08:46:03.740Z,23.7
2018-05-15T08:47:04.459Z,23.6
2018-05-15T08:48:05.194Z,23.8
2018-05-15T08:49:05.925Z,24.0
2018-05-15T08:50:06.663Z,23.9
2018-05-15T08:51:07.636Z,24.0
2018-05-15T08:52:08.368Z,24.1
2018-05-15T08:53:09.561Z,24.2
2018-05-15T08:54:10.287Z,24.4
2018-05-15T08:55:11.016Z,24.4
2018-05-15T08:56:12.003Z,24.6
2018-05-15T08:57:12.726Z,24.8
2018-05-15T08:58:13.817Z,25.0
2018-05-15T08:59:14.797Z,25.3
2018-05-15T09:00:15.530Z,25.2
2018-05-15T09:01:16.272Z,25.1
2018-05-15T09:02:16.995Z,25.0
2018-05-15T09:03:17.735Z,25.0
2018-05-15T09:04:18.806Z,24.9
2018-05-15T09:05:19.792Z,25.0
2018-05-15T09:06:20.524Z,25.1
2018-05-15T09:07:21.270Z,25.1
2018-05-15T09:08:21.992Z,25.2
2018-05-15T09:09:22.796Z,25.1
2018-05-15T09:10:23.796Z,25.2
2018-05-15T09:11:24.548Z,25.2
2018-05-15T09:12:25.284Z,25.1
2018-05-15T09:13:26.022Z,25.3
2018-05-15T09:14:26.753Z,25.5
2018-05-15T09:15:27.480Z,25.5
2018-05-15T09:16:28.204Z,25.5
2018-05-15T09:17:28.928Z,25.7
2018-05-15T09:18:29.675Z,25.7
2018-05-15T09:19:30.410Z,25.8
2018-05-15T09:20:31.166Z,25.8
2018-05-15T09:21:31.996Z,25.9
2018-05-15T09:22:32.730Z,26.1
2018-05-15T09:23:33.483Z,26.1
2018-05-15T09:24:34.216Z,26.2
2018-05-15T09:25:34.940Z,26.5
2018-05-15T09:26:35.683Z,26.7
2018-05-15T09:27:36.414Z,26.9
2018-05-15T09:28:37.409Z,27.0
2018-05-15T09:29:38.134Z,27.2
2018-05-15T09:30:39.114Z,27.2
2018-05-15T09:31:39.854Z,27.4
2018-05-15T09:32:40.583Z,27.4
2018-05-15T09:33:41.570Z,27.5
2018-05-15T09:34:42.319Z,27.4
2018-05-15T09:35:43.048Z,27.3
2018-05-15T09:36:43.781Z,27.0
2018-05-15T09:37:44.521Z,26.7
2018-05-15T09:38:45.263Z,26.5
2018-05-15T09:39:45.998Z,26.6
2018-05-15T09:40:46.722Z,26.4
2018-05-15T09:41:47.453Z,26.4
2018-05-15T09:42:48.185Z,26.4
2018-05-15T09:43:48.921Z,26.5
2018-05-15T09:44:49.655Z,26.6
2018-05-15T09:45:50.396Z,26.9
2018-05-15T09:46:51.157Z,26.6
2018-05-15T09:47:51.868Z,26.4
2018-05-15T09:48:52.623Z,26.4
2018-05-15T09:49:53.398Z,26.3
2018-05-15T09:50:54.390Z,26.5
2018-05-15T09:51:55.127Z,26.8
2018-05-15T09:52:56.111Z,26.8
2018-05-15T09:53:56.841Z,27.1
2018-05-15T09:54:57.680Z,27.1
2018-05-15T09:55:58.404Z,27.2
2018-05-15T09:56:59.142Z,26.9
2018-05-15T09:57:59.867Z,27.0
2018-05-15T09:59:00.606Z,27.1
2018-05-15T10:00:01.331Z,27.2
2018-05-15T10:01:02.077Z,27.5
2018-05-15T10:02:02.827Z,27.2
2018-05-15T10:03:03.586Z,27.5
2018-05-15T10:04:04.307Z,27.6
2018-05-15T10:05:05.403Z,27.7
2018-05-15T10:06:06.136Z,27.7
2018-05-15T10:07:06.867Z,27.9
2018-05-15T10:08:07.642Z,27.9
2018-05-15T10:09:08.348Z,28.0
2018-05-15T10:10:09.136Z,28.0
2018-05-15T10:11:09.872Z,28.0
2018-05-15T10:12:10.632Z,28.0
2018-05-15T10:13:11.360Z,28.0
2018-05-15T10:14:12.162Z,27.9
2018-05-15T10:15:12.835Z,27.9
2018-05-15T10:16:14.029Z,28.2
2018-05-15T10:17:14.775Z,28.1
2018-05-15T10:18:15.508Z,28.2
2018-05-15T10:19:16.243Z,28.3
2018-05-15T10:20:16.976Z,28.5
2018-05-15T10:21:17.753Z,28.8
2018-05-15T10:22:18.738Z,29.1
2018-05-15T10:23:19.473Z,29.3
2018-05-15T10:24:20.458Z,29.0
2018-05-15T10:25:21.209Z,29.0
2018-05-15T10:26:22.037Z,29.2
2018-05-15T10:27:22.725Z,29.4
2018-05-15T10:28:23.467Z,29.6
2018-05-15T10:29:24.200Z,29.9
2018-05-15T10:30:24.932Z,29.6
2018-05-15T10:31:26.013Z,29.5
2018-05-15T10:32:27.035Z,29.4
2018-05-15T10:33:27.738Z,29.3
2018-05-15T10:34:28.460Z,29.3
2018-05-15T10:35:29.201Z,29.4
2018-05-15T10:36:30.094Z,29.4
2018-05-15T10:37:30.825Z,29.6
2018-05-15T10:38:31.557Z,29.7
2018-05-15T10:39:32.289Z,29.5
2018-05-15T10:40:33.036Z,29.5
2018-05-15T10:41:34.154Z,29.7
2018-05-15T10:42:35.135Z,29.9
2018-05-15T10:43:35.866Z,30.2
2018-05-15T10:44:36.619Z,30.2
2018-05-15T10:45:37.357Z,30.3
2018-05-15T10:46:38.105Z,30.5
2018-05-15T10:47:38.827Z,30.7
2018-05-15T10:48:39.573Z,31.1
2018-05-15T10:49:40.308Z,31.0
2018-05-15T10:50:41.170Z,30.9
2018-05-15T10:51:41.815Z,30.9
2018-05-15T10:52:42.554Z,30.9
2018-05-15T10:53:43.298Z,30.6
2018-05-15T10:54:44.279Z,30.7
2018-05-15T10:55:45.440Z,30.3
2018-05-15T10:56:46.167Z,30.6
2018-05-15T10:57:46.898Z,30.3
2018-05-15T10:58:47.650Z,30.6
2018-05-15T10:59:48.392Z,30.8
2018-05-15T11:00:49.379Z,31.0
2018-05-15T11:01:50.113Z,31.1
2018-05-15T11:02:50.852Z,30.9
2018-05-15T11:03:51.596Z,30.6
2018-05-15T11:04:52.333Z,30.5
2018-05-15T11:05:53.319Z,30.6
2018-05-15T11:06:54.064Z,31.0
2018-05-15T11:07:55.680Z,30.8
2018-05-15T11:08:56.612Z,31.2
2018-05-15T11:09:57.347Z,31.4
2018-05-15T11:10:58.393Z,31.5
2018-05-15T11:11:59.323Z,31.8
2018-05-15T11:13:00.065Z,31.8
2018-05-15T11:14:00.791Z,31.5
2018-05-15T11:15:01.775Z,31.4
2018-05-15T11:16:02.501Z,31.2
2018-05-15T11:17:03.489Z,31.4
2018-05-15T11:18:04.223Z,31.4
2018-05-15T11:19:04.954Z,31.2
2018-05-15T11:20:05.696Z,31.4
2018-05-15T11:21:06.431Z,31.5
2018-05-15T11:22:07.424Z,31.1
2018-05-15T11:23:08.631Z,31.1
2018-05-15T11:24:09.360Z,31.0
2018-05-15T11:25:10.368Z,30.3
2018-05-15T11:26:11.120Z,30.6
2018-05-15T11:27:12.341Z,30.8
2018-05-15T11:28:13.176Z,31.2
2018-05-15T11:29:13.934Z,31.5
2018-05-15T11:30:14.668Z,31.4
2018-05-15T11:31:15.397Z,31.6
2018-05-15T11:32:16.135Z,31.8
2018-05-15T11:33:16.888Z,31.8
2018-05-15T11:34:17.732Z,31.2
2018-05-15T11:35:18.474Z,30.8
2018-05-15T11:36:19.211Z,30.1
2018-05-15T11:37:19.946Z,29.9
2018-05-15T11:38:20.675Z,29.5
2018-05-15T11:39:21.408Z,29.3
2018-05-15T11:40:22.395Z,28.9
2018-05-15T11:41:23.154Z,28.8
2018-05-15T11:42:23.881Z,28.6
2018-05-15T11:43:24.618Z,28.3
2018-05-15T11:44:25.480Z,28.1
2018-05-15T11:45:26.199Z,28.0
2018-05-15T11:46:26.942Z,28.0
2018-05-15T11:47:27.857Z,28.2
2018-05-15T11:48:28.939Z,28.2
2018-05-15T11:49:29.691Z,27.7
2018-05-15T11:50:30.582Z,27.8
2018-05-15T11:51:31.570Z,28.0
2018-05-15T11:52:32.071Z,28.0
2018-05-15T11:53:32.130Z,28.0
2018-05-15T11:54:32.914Z,27.7
2018-05-15T11:55:35.296Z,27.8
2018-05-15T11:56:34.453Z,27.7
2018-05-15T11:57:35.133Z,27.8
2018-05-15T11:58:35.865Z,27.9
2018-05-15T11:59:36.598Z,28.0
2018-05-15T12:00:37.346Z,28.4
2018-05-15T12:01:38.078Z,29.2
2018-05-15T12:02:38.893Z,29.5
2018-05-15T12:03:39.566Z,29.5
2018-05-15T12:04:40.289Z,29.5
2018-05-15T12:05:41.012Z,29.1
2018-05-15T12:06:41.757Z,29.4
2018-05-15T12:07:42.498Z,29.4
2018-05-15T12:08:43.244Z,29.1
2018-05-15T12:09:44.029Z,28.8
2018-05-15T12:10:44.759Z,28.9
2018-05-15T12:11:45.493Z,28.0
2018-05-15T12:12:46.240Z,27.9
2018-05-15T12:13:46.965Z,27.7
2018-05-15T12:14:47.695Z,27.9
2018-05-15T12:15:48.430Z,27.5
2018-05-15T12:16:49.419Z,27.3
2018-05-15T12:17:50.149Z,27.1
2018-05-15T12:18:50.885Z,26.8
2018-05-15T12:19:51.874Z,26.7
2018-05-15T12:20:52.632Z,26.9
2018-05-15T12:21:53.362Z,26.8
2018-05-15T12:22:54.510Z,26.5
2018-05-15T12:23:55.490Z,26.7
2018-05-15T12:24:56.217Z,26.9
2018-05-15T12:25:56.962Z,27.5
2018-05-15T12:26:57.747Z,28.2
2018-05-15T12:27:58.604Z,27.9
2018-05-15T12:28:59.279Z,28.0
2018-05-15T12:30:00.021Z,28.6
2018-05-15T12:31:00.751Z,29.4
2018-05-15T12:32:01.491Z,29.7
2018-05-15T12:33:02.224Z,29.6
2018-05-15T12:34:02.960Z,28.9
2018-05-15T12:35:04.095Z,28.9
2018-05-15T12:36:04.835Z,28.8
2018-05-15T12:37:05.564Z,28.6
2018-05-15T12:38:06.305Z,28.6
2018-05-15T12:39:07.041Z,28.8
2018-05-15T12:40:07.792Z,28.8
2018-05-15T12:41:08.555Z,28.7
2018-05-15T12:42:09.440Z,29.2
2018-05-15T12:43:09.980Z,28.8
2018-05-15T12:44:11.071Z,28.8
2018-05-15T12:45:11.802Z,28.8
2018-05-15T12:46:12.548Z,28.9
2018-05-15T12:47:13.280Z,29.2
2018-05-15T12:48:14.046Z,29.7
2018-05-15T12:49:14.745Z,29.4
2018-05-15T12:50:15.932Z,29.1
2018-05-15T12:51:16.667Z,29.0
2018-05-15T12:52:17.643Z,29.0
2018-05-15T12:53:18.373Z,28.8
2018-05-15T12:54:19.101Z,28.1
2018-05-15T12:55:20.079Z,28.2
2018-05-15T12:56:20.819Z,28.2
2018-05-15T12:57:21.560Z,28.2
2018-05-15T12:58:22.286Z,28.1
2018-05-15T12:59:23.033Z,27.9
2018-05-15T13:00:23.772Z,27.9
2018-05-15T13:01:24.512Z,28.0
2018-05-15T13:02:25.240Z,27.7
2018-05-15T13:03:26.080Z,27.4
2018-05-15T13:04:26.817Z,27.2
2018-05-15T13:05:27.564Z,27.9
2018-05-15T13:06:28.547Z,28.9
2018-05-15T13:07:29.300Z,29.4
2018-05-15T13:08:30.131Z,30.2
2018-05-15T13:09:30.863Z,30.6
2018-05-15T13:10:31.599Z,31.2
2018-05-15T13:11:32.348Z,31.8
2018-05-15T13:12:33.088Z,32.4
2018-05-15T13:13:34.077Z,32.8
2018-05-15T13:14:34.814Z,32.9
2018-05-15T13:15:35.803Z,33.0
2018-05-15T13:16:36.549Z,32.7
2018-05-15T13:17:37.283Z,32.7
2018-05-15T13:18:38.056Z,32.9
2018-05-15T13:19:38.756Z,32.1
2018-05-15T13:20:39.492Z,30.7
2018-05-15T13:21:40.235Z,31.2
2018-05-15T13:22:40.962Z,31.6
2018-05-15T13:23:41.744Z,31.5
2018-05-15T13:24:42.553Z,31.6
2018-05-15T13:25:43.219Z,31.9
2018-05-15T13:26:43.950Z,32.4
2018-05-15T13:27:44.683Z,32.5
2018-05-15T13:28:45.429Z,32.9
2018-05-15T13:29:46.199Z,33.2